sensor_id;sensor_type;location;lat;lon;timestamp;P1;durP1;ratioP1;P2;durP2;ratioP2
69757;SDS011;57027;51.044;5.774;2022-07-06T00:02:14;4.53;;;1.40;;
69757;SDS011;57027;51.044;5.774;2022-07-06T00:04:39;4.13;;;1.67;;
69757;SDS011;57027;51.044;5.774;2022-07-06T00:07:05;4.32;;;1.48;;
69757;SDS011;57027;51.044;5.774;2022-07-06T00:09:30;3.23;;;1.63;;
69757;SDS011;57027;51.044;5.774;2022-07-06T00:11:56;9.00;;;1.80;;
69757;SDS011;57027;51.044;5.774;2022-07-06T00:14:21;2.75;;;1.40;;
69757;SDS011;57027;51.044;5.774;2022-07-06T00:16:47;3.20;;;1.40;;
69757;SDS011;57027;51.044;5.774;2022-07-06T00:19:12;6.10;;;1.67;;
69757;SDS011;57027;51.044;5.774;2022-07-06T00:21:38;5.67;;;1.63;;
69757;SDS011;57027;51.044;5.774;2022-07-06T00:24:03;4.60;;;1.67;;
69757;SDS011;57027;51.044;5.774;2022-07-06T00:26:29;3.78;;;1.48;;
69757;SDS011;57027;51.044;5.774;2022-07-06T00:28:54;4.33;;;1.60;;
69757;SDS011;57027;51.044;5.774;2022-07-06T00:31:20;4.97;;;1.80;;
69757;SDS011;57027;51.044;5.774;2022-07-06T00:33:45;3.07;;;1.73;;
69757;SDS011;57027;51.044;5.774;2022-07-06T00:36:11;4.10;;;1.90;;
69757;SDS011;57027;51.044;5.774;2022-07-06T00:38:36;7.63;;;1.80;;
69757;SDS011;57027;51.044;5.774;2022-07-06T00:41:01;3.93;;;1.37;;
69757;SDS011;57027;51.044;5.774;2022-07-06T00:43:27;5.97;;;1.70;;
69757;SDS011;57027;51.044;5.774;2022-07-06T00:45:52;2.83;;;1.80;;
69757;SDS011;57027;51.044;5.774;2022-07-06T00:48:18;4.30;;;1.90;;
69757;SDS011;57027;51.044;5.774;2022-07-06T00:50:43;5.37;;;1.80;;
69757;SDS011;57027;51.044;5.774;2022-07-06T00:53:09;5.78;;;1.90;;
69757;SDS011;57027;51.044;5.774;2022-07-06T00:55:35;5.90;;;1.60;;
69757;SDS011;57027;51.044;5.774;2022-07-06T00:58:05;7.35;;;1.92;;
69757;SDS011;57027;51.044;5.774;2022-07-06T01:00:31;6.05;;;2.28;;
69757;SDS011;57027;51.044;5.774;2022-07-06T01:02:57;3.03;;;2.07;;
69757;SDS011;57027;51.044;5.774;2022-07-06T01:05:23;4.53;;;1.80;;
69757;SDS011;57027;51.044;5.774;2022-07-06T01:07:49;6.97;;;2.27;;
69757;SDS011;57027;51.044;5.774;2022-07-06T01:10:19;4.38;;;2.10;;
69757;SDS011;57027;51.044;5.774;2022-07-06T01:12:46;7.47;;;2.25;;
69757;SDS011;57027;51.044;5.774;2022-07-06T01:15:14;5.63;;;2.20;;
69757;SDS011;57027;51.044;5.774;2022-07-06T01:17:41;5.68;;;1.90;;
69757;SDS011;57027;51.044;5.774;2022-07-06T01:22:37;6.25;;;2.45;;
69757;SDS011;57027;51.044;5.774;2022-07-06T01:25:03;5.40;;;2.27;;
69757;SDS011;57027;51.044;5.774;2022-07-06T01:27:32;6.13;;;2.22;;
69757;SDS011;57027;51.044;5.774;2022-07-06T01:30:05;7.53;;;2.17;;
69757;SDS011;57027;51.044;5.774;2022-07-06T01:32:32;6.18;;;2.45;;
69757;SDS011;57027;51.044;5.774;2022-07-06T01:35:01;4.40;;;2.30;;
69757;SDS011;57027;51.044;5.774;2022-07-06T01:37:29;5.40;;;2.28;;
69757;SDS011;57027;51.044;5.774;2022-07-06T01:40:05;7.13;;;2.85;;
69757;SDS011;57027;51.044;5.774;2022-07-06T01:42:32;5.67;;;2.60;;
69757;SDS011;57027;51.044;5.774;2022-07-06T01:44:58;6.05;;;2.15;;
69757;SDS011;57027;51.044;5.774;2022-07-06T01:47:23;5.57;;;2.42;;
69757;SDS011;57027;51.044;5.774;2022-07-06T01:49:49;5.77;;;2.40;;
69757;SDS011;57027;51.044;5.774;2022-07-06T01:52:15;4.53;;;2.40;;
69757;SDS011;57027;51.044;5.774;2022-07-06T01:54:40;3.27;;;2.17;;
69757;SDS011;57027;51.044;5.774;2022-07-06T01:57:06;6.30;;;2.30;;
69757;SDS011;57027;51.044;5.774;2022-07-06T01:59:32;4.97;;;2.30;;
69757;SDS011;57027;51.044;5.774;2022-07-06T02:01:57;5.97;;;2.53;;
69757;SDS011;57027;51.044;5.774;2022-07-06T02:04:22;5.70;;;2.53;;
69757;SDS011;57027;51.044;5.774;2022-07-06T02:06:48;6.27;;;2.70;;
69757;SDS011;57027;51.044;5.774;2022-07-06T02:09:13;7.03;;;3.07;;
69757;SDS011;57027;51.044;5.774;2022-07-06T02:11:39;9.25;;;2.80;;
69757;SDS011;57027;51.044;5.774;2022-07-06T02:14:04;7.07;;;2.97;;
69757;SDS011;57027;51.044;5.774;2022-07-06T02:16:29;3.63;;;2.50;;
69757;SDS011;57027;51.044;5.774;2022-07-06T02:18:55;12.13;;;4.27;;
69757;SDS011;57027;51.044;5.774;2022-07-06T02:21:20;6.68;;;2.95;;
69757;SDS011;57027;51.044;5.774;2022-07-06T02:23:46;7.37;;;2.63;;
69757;SDS011;57027;51.044;5.774;2022-07-06T02:26:11;7.43;;;2.70;;
69757;SDS011;57027;51.044;5.774;2022-07-06T02:28:37;6.53;;;3.10;;
69757;SDS011;57027;51.044;5.774;2022-07-06T02:31:02;6.95;;;2.90;;
69757;SDS011;57027;51.044;5.774;2022-07-06T02:33:28;6.70;;;2.77;;
69757;SDS011;57027;51.044;5.774;2022-07-06T02:35:53;5.10;;;2.60;;
69757;SDS011;57027;51.044;5.774;2022-07-06T02:38:18;6.53;;;2.70;;
69757;SDS011;57027;51.044;5.774;2022-07-06T02:40:47;5.75;;;2.90;;
69757;SDS011;57027;51.044;5.774;2022-07-06T02:43:12;6.00;;;2.83;;
69757;SDS011;57027;51.044;5.774;2022-07-06T02:45:38;5.22;;;3.00;;
69757;SDS011;57027;51.044;5.774;2022-07-06T02:48:06;5.50;;;2.50;;
69757;SDS011;57027;51.044;5.774;2022-07-06T02:50:31;6.85;;;2.72;;
69757;SDS011;57027;51.044;5.774;2022-07-06T02:52:56;6.20;;;3.03;;
69757;SDS011;57027;51.044;5.774;2022-07-06T02:55:23;8.60;;;3.13;;
69757;SDS011;57027;51.044;5.774;2022-07-06T02:57:49;5.63;;;3.10;;
69757;SDS011;57027;51.044;5.774;2022-07-06T03:00:14;7.03;;;3.40;;
69757;SDS011;57027;51.044;5.774;2022-07-06T03:02:40;6.32;;;2.88;;
69757;SDS011;57027;51.044;5.774;2022-07-06T03:05:05;8.03;;;3.23;;
69757;SDS011;57027;51.044;5.774;2022-07-06T03:07:31;7.30;;;3.40;;
69757;SDS011;57027;51.044;5.774;2022-07-06T03:09:56;5.03;;;3.03;;
69757;SDS011;57027;51.044;5.774;2022-07-06T03:12:22;6.10;;;3.00;;
69757;SDS011;57027;51.044;5.774;2022-07-06T03:14:47;4.63;;;2.73;;
69757;SDS011;57027;51.044;5.774;2022-07-06T03:17:12;5.30;;;3.10;;
69757;SDS011;57027;51.044;5.774;2022-07-06T03:19:40;4.85;;;2.88;;
69757;SDS011;57027;51.044;5.774;2022-07-06T03:22:06;5.27;;;3.10;;
69757;SDS011;57027;51.044;5.774;2022-07-06T03:24:31;6.00;;;2.90;;
69757;SDS011;57027;51.044;5.774;2022-07-06T03:26:56;8.07;;;2.90;;
69757;SDS011;57027;51.044;5.774;2022-07-06T03:29:22;5.37;;;2.97;;
69757;SDS011;57027;51.044;5.774;2022-07-06T03:31:47;7.90;;;3.07;;
69757;SDS011;57027;51.044;5.774;2022-07-06T03:34:13;6.17;;;3.20;;
69757;SDS011;57027;51.044;5.774;2022-07-06T03:36:38;7.77;;;3.00;;
69757;SDS011;57027;51.044;5.774;2022-07-06T03:39:04;7.03;;;2.90;;
69757;SDS011;57027;51.044;5.774;2022-07-06T03:41:30;4.65;;;2.65;;
69757;SDS011;57027;51.044;5.774;2022-07-06T03:43:55;4.17;;;2.90;;
69757;SDS011;57027;51.044;5.774;2022-07-06T03:46:21;7.90;;;3.17;;
69757;SDS011;57027;51.044;5.774;2022-07-06T03:48:46;9.80;;;2.90;;
69757;SDS011;57027;51.044;5.774;2022-07-06T03:51:12;7.77;;;3.37;;
69757;SDS011;57027;51.044;5.774;2022-07-06T03:53:37;4.80;;;3.03;;
69757;SDS011;57027;51.044;5.774;2022-07-06T03:56:03;10.70;;;3.45;;
69757;SDS011;57027;51.044;5.774;2022-07-06T03:58:47;6.57;;;3.00;;
69757;SDS011;57027;51.044;5.774;2022-07-06T04:01:12;6.97;;;2.97;;
69757;SDS011;57027;51.044;5.774;2022-07-06T04:03:37;7.40;;;2.73;;
69757;SDS011;57027;51.044;5.774;2022-07-06T04:06:03;6.78;;;2.83;;
69757;SDS011;57027;51.044;5.774;2022-07-06T04:08:29;6.10;;;2.83;;
69757;SDS011;57027;51.044;5.774;2022-07-06T04:10:54;7.10;;;2.60;;
69757;SDS011;57027;51.044;5.774;2022-07-06T04:13:20;5.23;;;3.27;;
69757;SDS011;57027;51.044;5.774;2022-07-06T04:15:45;5.87;;;3.10;;
69757;SDS011;57027;51.044;5.774;2022-07-06T04:18:10;6.30;;;3.47;;
69757;SDS011;57027;51.044;5.774;2022-07-06T04:20:36;9.50;;;2.83;;
69757;SDS011;57027;51.044;5.774;2022-07-06T04:23:01;6.67;;;2.90;;
69757;SDS011;57027;51.044;5.774;2022-07-06T04:25:27;5.80;;;3.05;;
69757;SDS011;57027;51.044;5.774;2022-07-06T04:27:52;7.03;;;3.07;;
69757;SDS011;57027;51.044;5.774;2022-07-06T04:30:18;7.47;;;2.90;;
69757;SDS011;57027;51.044;5.774;2022-07-06T04:32:43;5.87;;;2.70;;
69757;SDS011;57027;51.044;5.774;2022-07-06T04:35:08;8.77;;;2.50;;
69757;SDS011;57027;51.044;5.774;2022-07-06T04:37:34;6.27;;;2.70;;
69757;SDS011;57027;51.044;5.774;2022-07-06T04:40:02;7.32;;;2.50;;
69757;SDS011;57027;51.044;5.774;2022-07-06T04:42:28;7.22;;;2.90;;
69757;SDS011;57027;51.044;5.774;2022-07-06T04:44:54;5.67;;;2.63;;
69757;SDS011;57027;51.044;5.774;2022-07-06T04:47:19;5.43;;;2.40;;
69757;SDS011;57027;51.044;5.774;2022-07-06T04:49:45;6.13;;;2.80;;
69757;SDS011;57027;51.044;5.774;2022-07-06T04:54:49;5.68;;;2.20;;
69757;SDS011;57027;51.044;5.774;2022-07-06T04:57:14;8.13;;;2.63;;
69757;SDS011;57027;51.044;5.774;2022-07-06T04:59:40;8.65;;;2.47;;
69757;SDS011;57027;51.044;5.774;2022-07-06T05:02:08;6.53;;;2.80;;
69757;SDS011;57027;51.044;5.774;2022-07-06T05:04:34;6.22;;;2.10;;
69757;SDS011;57027;51.044;5.774;2022-07-06T05:07:00;5.43;;;2.40;;
69757;SDS011;57027;51.044;5.774;2022-07-06T05:09:25;5.70;;;2.28;;
69757;SDS011;57027;51.044;5.774;2022-07-06T05:11:51;6.30;;;2.17;;
69757;SDS011;57027;51.044;5.774;2022-07-06T05:14:16;6.77;;;2.33;;
69757;SDS011;57027;51.044;5.774;2022-07-06T05:16:42;5.38;;;2.47;;
69757;SDS011;57027;51.044;5.774;2022-07-06T05:19:07;8.93;;;2.50;;
69757;SDS011;57027;51.044;5.774;2022-07-06T05:27:36;4.05;;;2.08;;
69757;SDS011;57027;51.044;5.774;2022-07-06T06:51:37;1.80;;;0.88;;
69757;SDS011;57027;51.044;5.774;2022-07-06T06:54:03;2.83;;;1.35;;
69757;SDS011;57027;51.044;5.774;2022-07-06T06:56:31;7.60;;;1.20;;
69757;SDS011;57027;51.044;5.774;2022-07-06T06:58:57;5.53;;;0.82;;
69757;SDS011;57027;51.044;5.774;2022-07-06T07:01:22;3.07;;;0.90;;
69757;SDS011;57027;51.044;5.774;2022-07-06T07:03:49;3.30;;;0.80;;
69757;SDS011;57027;51.044;5.774;2022-07-06T07:06:20;5.57;;;1.00;;
69757;SDS011;57027;51.044;5.774;2022-07-06T07:08:48;6.20;;;0.97;;
69757;SDS011;57027;51.044;5.774;2022-07-06T07:11:16;4.18;;;0.73;;
69757;SDS011;57027;51.044;5.774;2022-07-06T07:13:44;4.10;;;0.80;;
69757;SDS011;57027;51.044;5.774;2022-07-06T07:16:15;2.75;;;0.70;;
69757;SDS011;57027;51.044;5.774;2022-07-06T07:18:43;2.08;;;0.90;;
69757;SDS011;57027;51.044;5.774;2022-07-06T07:21:09;2.30;;;1.00;;
69757;SDS011;57027;51.044;5.774;2022-07-06T07:23:40;3.80;;;0.60;;
69757;SDS011;57027;51.044;5.774;2022-07-06T07:33:47;1.83;;;0.70;;
69757;SDS011;57027;51.044;5.774;2022-07-06T07:36:15;2.30;;;0.68;;
69757;SDS011;57027;51.044;5.774;2022-07-06T07:38:41;2.93;;;0.60;;
69757;SDS011;57027;51.044;5.774;2022-07-06T07:41:09;1.73;;;0.60;;
69757;SDS011;57027;51.044;5.774;2022-07-06T07:43:36;2.60;;;0.80;;
69757;SDS011;57027;51.044;5.774;2022-07-06T07:46:12;4.63;;;1.05;;
69757;SDS011;57027;51.044;5.774;2022-07-06T07:48:52;3.23;;;0.90;;
69757;SDS011;57027;51.044;5.774;2022-07-06T07:51:49;1.80;;;0.70;;
69757;SDS011;57027;51.044;5.774;2022-07-06T07:54:23;3.00;;;0.82;;
69757;SDS011;57027;51.044;5.774;2022-07-06T07:56:48;6.20;;;0.80;;
69757;SDS011;57027;51.044;5.774;2022-07-06T07:59:16;3.40;;;0.80;;
69757;SDS011;57027;51.044;5.774;2022-07-06T08:01:42;1.50;;;0.57;;
69757;SDS011;57027;51.044;5.774;2022-07-06T08:04:07;1.50;;;0.60;;
69757;SDS011;57027;51.044;5.774;2022-07-06T08:06:36;2.53;;;0.65;;
69757;SDS011;57027;51.044;5.774;2022-07-06T08:09:04;1.75;;;0.70;;
69757;SDS011;57027;51.044;5.774;2022-07-06T08:11:37;4.20;;;0.60;;
69757;SDS011;57027;51.044;5.774;2022-07-06T08:14:03;4.90;;;0.65;;
69757;SDS011;57027;51.044;5.774;2022-07-06T08:16:29;1.25;;;0.50;;
69757;SDS011;57027;51.044;5.774;2022-07-06T08:18:55;1.70;;;0.50;;
69757;SDS011;57027;51.044;5.774;2022-07-06T08:21:21;2.83;;;0.70;;
69757;SDS011;57027;51.044;5.774;2022-07-06T08:23:47;5.50;;;0.77;;
69757;SDS011;57027;51.044;5.774;2022-07-06T08:26:13;5.53;;;0.77;;
69757;SDS011;57027;51.044;5.774;2022-07-06T08:28:41;2.73;;;0.80;;
69757;SDS011;57027;51.044;5.774;2022-07-06T08:31:09;4.80;;;0.63;;
69757;SDS011;57027;51.044;5.774;2022-07-06T08:33:35;4.40;;;0.80;;
69757;SDS011;57027;51.044;5.774;2022-07-06T08:36:11;1.40;;;0.60;;
69757;SDS011;57027;51.044;5.774;2022-07-06T08:38:43;6.93;;;0.70;;
69757;SDS011;57027;51.044;5.774;2022-07-06T08:41:09;1.53;;;0.60;;
69757;SDS011;57027;51.044;5.774;2022-07-06T08:43:35;2.60;;;0.63;;
69757;SDS011;57027;51.044;5.774;2022-07-06T08:46:03;1.88;;;0.80;;
69757;SDS011;57027;51.044;5.774;2022-07-06T08:48:35;1.90;;;0.60;;
69757;SDS011;57027;51.044;5.774;2022-07-06T08:51:02;2.80;;;0.50;;
69757;SDS011;57027;51.044;5.774;2022-07-06T08:53:29;4.15;;;0.60;;
69757;SDS011;57027;51.044;5.774;2022-07-06T08:55:55;2.15;;;0.80;;
69757;SDS011;57027;51.044;5.774;2022-07-06T08:58:20;1.27;;;0.50;;
69757;SDS011;57027;51.044;5.774;2022-07-06T09:00:49;2.47;;;0.80;;
69757;SDS011;57027;51.044;5.774;2022-07-06T09:03:14;2.03;;;0.50;;
69757;SDS011;57027;51.044;5.774;2022-07-06T09:05:40;1.70;;;0.60;;
69757;SDS011;57027;51.044;5.774;2022-07-06T09:08:10;3.55;;;0.85;;
69757;SDS011;57027;51.044;5.774;2022-07-06T09:10:42;2.15;;;0.50;;
69757;SDS011;57027;51.044;5.774;2022-07-06T09:13:11;1.65;;;0.52;;
69757;SDS011;57027;51.044;5.774;2022-07-06T09:15:44;1.50;;;0.60;;
69757;SDS011;57027;51.044;5.774;2022-07-06T09:18:09;1.33;;;0.60;;
69757;SDS011;57027;51.044;5.774;2022-07-06T09:21:30;2.17;;;0.80;;
69757;SDS011;57027;51.044;5.774;2022-07-06T09:24:02;1.23;;;0.60;;
69757;SDS011;57027;51.044;5.774;2022-07-06T09:26:40;1.60;;;0.60;;
69757;SDS011;57027;51.044;5.774;2022-07-06T09:29:06;1.90;;;0.65;;
69757;SDS011;57027;51.044;5.774;2022-07-06T09:31:32;3.33;;;1.45;;
69757;SDS011;57027;51.044;5.774;2022-07-06T09:34:02;2.03;;;0.52;;
69757;SDS011;57027;51.044;5.774;2022-07-06T09:39:41;2.10;;;0.55;;
69757;SDS011;57027;51.044;5.774;2022-07-06T09:42:00;5.32;;;0.80;;
69757;SDS011;57027;51.044;5.774;2022-07-06T09:44:30;1.98;;;0.65;;
69757;SDS011;57027;51.044;5.774;2022-07-06T09:46:58;2.50;;;0.47;;
69757;SDS011;57027;51.044;5.774;2022-07-06T09:49:28;1.10;;;0.50;;
69757;SDS011;57027;51.044;5.774;2022-07-06T09:52:00;1.75;;;0.73;;
69757;SDS011;57027;51.044;5.774;2022-07-06T09:54:28;2.75;;;0.60;;
69757;SDS011;57027;51.044;5.774;2022-07-06T09:56:54;1.03;;;0.47;;
69757;SDS011;57027;51.044;5.774;2022-07-06T09:59:25;1.80;;;0.70;;
69757;SDS011;57027;51.044;5.774;2022-07-06T10:01:52;2.15;;;0.60;;
69757;SDS011;57027;51.044;5.774;2022-07-06T10:04:20;2.72;;;0.55;;
69757;SDS011;57027;51.044;5.774;2022-07-06T10:06:48;2.70;;;0.80;;
69757;SDS011;57027;51.044;5.774;2022-07-06T10:09:15;1.45;;;0.60;;
69757;SDS011;57027;51.044;5.774;2022-07-06T10:11:45;3.27;;;0.63;;
69757;SDS011;57027;51.044;5.774;2022-07-06T10:14:27;2.47;;;0.80;;
69757;SDS011;57027;51.044;5.774;2022-07-06T10:16:58;3.60;;;0.98;;
69757;SDS011;57027;51.044;5.774;2022-07-06T10:19:26;4.15;;;0.90;;
69757;SDS011;57027;51.044;5.774;2022-07-06T10:21:56;1.15;;;0.57;;
69757;SDS011;57027;51.044;5.774;2022-07-06T10:24:34;1.20;;;0.57;;
69757;SDS011;57027;51.044;5.774;2022-07-06T10:27:10;1.15;;;0.80;;
69757;SDS011;57027;51.044;5.774;2022-07-06T10:29:37;3.63;;;0.60;;
69757;SDS011;57027;51.044;5.774;2022-07-06T10:32:10;0.68;;;0.65;;
69757;SDS011;57027;51.044;5.774;2022-07-06T10:34:36;1.30;;;0.57;;
69757;SDS011;57027;51.044;5.774;2022-07-06T10:37:02;1.43;;;0.70;;
69757;SDS011;57027;51.044;5.774;2022-07-06T10:39:35;4.35;;;0.60;;
69757;SDS011;57027;51.044;5.774;2022-07-06T10:42:42;11.00;;;0.98;;
69757;SDS011;57027;51.044;5.774;2022-07-06T10:48:39;4.68;;;0.75;;
69757;SDS011;57027;51.044;5.774;2022-07-06T10:50:50;4.55;;;1.05;;
69757;SDS011;57027;51.044;5.774;2022-07-06T10:53:31;5.30;;;0.90;;
69757;SDS011;57027;51.044;5.774;2022-07-06T10:55:59;1.98;;;0.90;;
69757;SDS011;57027;51.044;5.774;2022-07-06T10:58:49;3.10;;;0.90;;
69757;SDS011;57027;51.044;5.774;2022-07-06T11:01:19;1.45;;;0.65;;
69757;SDS011;57027;51.044;5.774;2022-07-06T11:03:49;3.83;;;0.80;;
69757;SDS011;57027;51.044;5.774;2022-07-06T11:06:22;2.90;;;0.90;;
69757;SDS011;57027;51.044;5.774;2022-07-06T11:08:57;3.72;;;0.63;;
69757;SDS011;57027;51.044;5.774;2022-07-06T11:13:59;2.25;;;0.80;;
69757;SDS011;57027;51.044;5.774;2022-07-06T11:16:28;2.63;;;1.00;;
69757;SDS011;57027;51.044;5.774;2022-07-06T11:19:03;1.77;;;0.77;;
69757;SDS011;57027;51.044;5.774;2022-07-06T11:21:38;4.75;;;0.90;;
69757;SDS011;57027;51.044;5.774;2022-07-06T11:24:18;1.63;;;0.60;;
69757;SDS011;57027;51.044;5.774;2022-07-06T11:26:48;1.15;;;0.60;;
69757;SDS011;57027;51.044;5.774;2022-07-06T11:29:22;1.63;;;0.93;;
69757;SDS011;57027;51.044;5.774;2022-07-06T11:31:50;1.58;;;0.70;;
69757;SDS011;57027;51.044;5.774;2022-07-06T11:34:18;5.75;;;0.60;;
69757;SDS011;57027;51.044;5.774;2022-07-06T11:36:48;2.27;;;0.70;;
69757;SDS011;57027;51.044;5.774;2022-07-06T11:39:35;1.73;;;0.70;;
69757;SDS011;57027;51.044;5.774;2022-07-06T11:42:12;1.60;;;0.75;;
69757;SDS011;57027;51.044;5.774;2022-07-06T11:44:44;2.05;;;0.73;;
69757;SDS011;57027;51.044;5.774;2022-07-06T11:47:15;4.32;;;0.80;;
69757;SDS011;57027;51.044;5.774;2022-07-06T11:49:49;3.03;;;0.70;;
69757;SDS011;57027;51.044;5.774;2022-07-06T11:52:15;3.83;;;0.85;;
69757;SDS011;57027;51.044;5.774;2022-07-06T11:55:01;1.70;;;0.70;;
69757;SDS011;57027;51.044;5.774;2022-07-06T11:57:31;3.50;;;0.80;;
69757;SDS011;57027;51.044;5.774;2022-07-06T11:59:57;3.13;;;0.80;;
69757;SDS011;57027;51.044;5.774;2022-07-06T12:02:32;2.03;;;0.70;;
69757;SDS011;57027;51.044;5.774;2022-07-06T12:05:00;2.13;;;0.80;;
69757;SDS011;57027;51.044;5.774;2022-07-06T12:07:26;2.00;;;0.80;;
69757;SDS011;57027;51.044;5.774;2022-07-06T12:09:51;2.50;;;0.67;;
69757;SDS011;57027;51.044;5.774;2022-07-06T12:12:17;3.13;;;0.90;;
69757;SDS011;57027;51.044;5.774;2022-07-06T12:14:42;1.15;;;0.68;;
69757;SDS011;57027;51.044;5.774;2022-07-06T12:17:11;4.30;;;1.00;;
69757;SDS011;57027;51.044;5.774;2022-07-06T12:19:38;3.58;;;0.90;;
69757;SDS011;57027;51.044;5.774;2022-07-06T12:22:05;1.70;;;0.53;;
69757;SDS011;57027;51.044;5.774;2022-07-06T12:24:32;0.88;;;0.50;;
69757;SDS011;57027;51.044;5.774;2022-07-06T12:27:09;0.75;;;0.60;;
69757;SDS011;57027;51.044;5.774;2022-07-06T12:29:47;2.30;;;0.80;;
69757;SDS011;57027;51.044;5.774;2022-07-06T12:32:35;2.08;;;0.90;;
69757;SDS011;57027;51.044;5.774;2022-07-06T12:35:05;4.30;;;0.70;;
69757;SDS011;57027;51.044;5.774;2022-07-06T12:37:32;4.28;;;0.80;;
69757;SDS011;57027;51.044;5.774;2022-07-06T12:39:59;11.98;;;1.15;;
69757;SDS011;57027;51.044;5.774;2022-07-06T12:42:25;4.70;;;0.80;;
69757;SDS011;57027;51.044;5.774;2022-07-06T12:44:51;2.50;;;1.00;;
69757;SDS011;57027;51.044;5.774;2022-07-06T12:47:23;3.47;;;0.82;;
69757;SDS011;57027;51.044;5.774;2022-07-06T12:50:06;2.53;;;0.82;;
69757;SDS011;57027;51.044;5.774;2022-07-06T12:52:34;2.75;;;0.85;;
69757;SDS011;57027;51.044;5.774;2022-07-06T12:55:01;3.47;;;0.82;;
69757;SDS011;57027;51.044;5.774;2022-07-06T12:57:42;15.37;;;2.03;;
69757;SDS011;57027;51.044;5.774;2022-07-06T13:00:09;3.35;;;0.90;;
69757;SDS011;57027;51.044;5.774;2022-07-06T13:02:38;45.08;;;3.90;;
69757;SDS011;57027;51.044;5.774;2022-07-06T13:07:33;4.63;;;0.93;;
69757;SDS011;57027;51.044;5.774;2022-07-06T13:10:00;1.10;;;0.70;;
69757;SDS011;57027;51.044;5.774;2022-07-06T13:12:27;1.60;;;0.80;;
69757;SDS011;57027;51.044;5.774;2022-07-06T13:15:08;1.42;;;0.80;;
69757;SDS011;57027;51.044;5.774;2022-07-06T13:17:54;1.30;;;0.82;;
69757;SDS011;57027;51.044;5.774;2022-07-06T13:23:08;3.40;;;0.70;;
69757;SDS011;57027;51.044;5.774;2022-07-06T13:25:50;2.47;;;1.45;;
69757;SDS011;57027;51.044;5.774;2022-07-06T13:28:37;2.28;;;0.77;;
69757;SDS011;57027;51.044;5.774;2022-07-06T13:31:08;2.10;;;0.90;;
69757;SDS011;57027;51.044;5.774;2022-07-06T13:33:55;5.68;;;0.93;;
69757;SDS011;57027;51.044;5.774;2022-07-06T13:36:34;2.75;;;0.90;;
69757;SDS011;57027;51.044;5.774;2022-07-06T13:39:09;3.65;;;0.85;;
69757;SDS011;57027;51.044;5.774;2022-07-06T13:41:35;2.00;;;0.80;;
69757;SDS011;57027;51.044;5.774;2022-07-06T13:44:01;2.97;;;0.73;;
69757;SDS011;57027;51.044;5.774;2022-07-06T13:46:27;2.13;;;0.85;;
69757;SDS011;57027;51.044;5.774;2022-07-06T13:48:54;2.50;;;0.80;;
69757;SDS011;57027;51.044;5.774;2022-07-06T13:51:19;2.08;;;0.75;;
69757;SDS011;57027;51.044;5.774;2022-07-06T13:53:45;2.80;;;0.70;;
69757;SDS011;57027;51.044;5.774;2022-07-06T13:56:11;4.82;;;1.02;;
69757;SDS011;57027;51.044;5.774;2022-07-06T13:58:37;1.70;;;0.73;;
69757;SDS011;57027;51.044;5.774;2022-07-06T14:01:03;3.53;;;0.90;;
69757;SDS011;57027;51.044;5.774;2022-07-06T14:03:29;2.05;;;0.80;;
69757;SDS011;57027;51.044;5.774;2022-07-06T14:06:00;1.98;;;0.90;;
69757;SDS011;57027;51.044;5.774;2022-07-06T14:08:27;4.03;;;0.87;;
69757;SDS011;57027;51.044;5.774;2022-07-06T14:10:53;1.90;;;1.00;;
69757;SDS011;57027;51.044;5.774;2022-07-06T14:13:20;3.45;;;1.10;;
69757;SDS011;57027;51.044;5.774;2022-07-06T14:15:46;3.15;;;0.90;;
69757;SDS011;57027;51.044;5.774;2022-07-06T14:18:12;3.33;;;0.70;;
69757;SDS011;57027;51.044;5.774;2022-07-06T14:20:40;1.70;;;0.77;;
69757;SDS011;57027;51.044;5.774;2022-07-06T14:23:06;5.10;;;0.98;;
69757;SDS011;57027;51.044;5.774;2022-07-06T14:25:35;1.43;;;0.90;;
69757;SDS011;57027;51.044;5.774;2022-07-06T14:28:01;4.35;;;1.13;;
69757;SDS011;57027;51.044;5.774;2022-07-06T14:30:27;2.60;;;0.83;;
69757;SDS011;57027;51.044;5.774;2022-07-06T14:32:52;4.27;;;0.90;;
69757;SDS011;57027;51.044;5.774;2022-07-06T14:35:20;2.17;;;0.80;;
69757;SDS011;57027;51.044;5.774;2022-07-06T14:37:46;2.60;;;0.70;;
69757;SDS011;57027;51.044;5.774;2022-07-06T14:40:12;5.40;;;1.15;;
69757;SDS011;57027;51.044;5.774;2022-07-06T14:42:44;3.80;;;0.90;;
69757;SDS011;57027;51.044;5.774;2022-07-06T14:45:22;3.17;;;0.90;;
69757;SDS011;57027;51.044;5.774;2022-07-06T14:47:54;1.48;;;0.80;;
69757;SDS011;57027;51.044;5.774;2022-07-06T14:50:20;2.22;;;1.05;;
69757;SDS011;57027;51.044;5.774;2022-07-06T14:52:56;2.83;;;0.80;;
69757;SDS011;57027;51.044;5.774;2022-07-06T14:55:22;3.60;;;0.95;;
69757;SDS011;57027;51.044;5.774;2022-07-06T14:57:51;2.42;;;0.90;;
69757;SDS011;57027;51.044;5.774;2022-07-06T15:00:17;2.95;;;0.80;;
69757;SDS011;57027;51.044;5.774;2022-07-06T15:02:42;4.17;;;0.90;;
69757;SDS011;57027;51.044;5.774;2022-07-06T15:05:11;3.63;;;1.30;;
69757;SDS011;57027;51.044;5.774;2022-07-06T15:07:37;3.10;;;0.80;;
69757;SDS011;57027;51.044;5.774;2022-07-06T15:10:03;2.97;;;0.95;;
69757;SDS011;57027;51.044;5.774;2022-07-06T15:12:33;6.18;;;0.95;;
69757;SDS011;57027;51.044;5.774;2022-07-06T15:15:06;3.20;;;0.90;;
69757;SDS011;57027;51.044;5.774;2022-07-06T15:17:35;3.78;;;1.00;;
69757;SDS011;57027;51.044;5.774;2022-07-06T15:23:16;5.05;;;1.10;;
69757;SDS011;57027;51.044;5.774;2022-07-06T15:26:01;9.82;;;1.42;;
69757;SDS011;57027;51.044;5.774;2022-07-06T15:28:32;5.40;;;1.33;;
69757;SDS011;57027;51.044;5.774;2022-07-06T15:31:11;5.57;;;1.20;;
69757;SDS011;57027;51.044;5.774;2022-07-06T15:33:39;2.50;;;1.05;;
69757;SDS011;57027;51.044;5.774;2022-07-06T15:36:05;4.60;;;1.13;;
69757;SDS011;57027;51.044;5.774;2022-07-06T15:38:33;3.47;;;1.05;;
69757;SDS011;57027;51.044;5.774;2022-07-06T15:41:01;2.90;;;1.00;;
69757;SDS011;57027;51.044;5.774;2022-07-06T15:43:43;3.47;;;1.20;;
69757;SDS011;57027;51.044;5.774;2022-07-06T15:46:19;4.90;;;1.10;;
69757;SDS011;57027;51.044;5.774;2022-07-06T15:48:45;3.17;;;1.10;;
69757;SDS011;57027;51.044;5.774;2022-07-06T15:53:38;2.75;;;1.15;;
69757;SDS011;57027;51.044;5.774;2022-07-06T15:56:03;3.10;;;1.00;;
69757;SDS011;57027;51.044;5.774;2022-07-06T15:58:29;3.40;;;1.10;;
69757;SDS011;57027;51.044;5.774;2022-07-06T16:00:54;3.20;;;1.10;;
69757;SDS011;57027;51.044;5.774;2022-07-06T16:03:20;3.22;;;1.00;;
69757;SDS011;57027;51.044;5.774;2022-07-06T16:05:47;4.80;;;0.93;;
69757;SDS011;57027;51.044;5.774;2022-07-06T16:08:15;3.88;;;1.13;;
69757;SDS011;57027;51.044;5.774;2022-07-06T16:10:41;5.55;;;1.30;;
69757;SDS011;57027;51.044;5.774;2022-07-06T16:13:06;1.90;;;1.07;;
69757;SDS011;57027;51.044;5.774;2022-07-06T16:15:32;2.73;;;1.10;;
69757;SDS011;57027;51.044;5.774;2022-07-06T16:18:00;3.80;;;1.30;;
69757;SDS011;57027;51.044;5.774;2022-07-06T16:20:26;2.57;;;1.20;;
69757;SDS011;57027;51.044;5.774;2022-07-06T16:22:51;4.77;;;1.07;;
69757;SDS011;57027;51.044;5.774;2022-07-06T16:25:18;5.25;;;1.45;;
69757;SDS011;57027;51.044;5.774;2022-07-06T16:27:44;3.35;;;1.38;;
69757;SDS011;57027;51.044;5.774;2022-07-06T16:30:14;5.50;;;1.20;;
69757;SDS011;57027;51.044;5.774;2022-07-06T16:32:40;4.87;;;1.50;;
69757;SDS011;57027;51.044;5.774;2022-07-06T16:35:06;8.60;;;1.55;;
69757;SDS011;57027;51.044;5.774;2022-07-06T16:37:31;3.83;;;1.63;;
69757;SDS011;57027;51.044;5.774;2022-07-06T16:39:57;4.13;;;1.60;;
69757;SDS011;57027;51.044;5.774;2022-07-06T16:42:22;5.97;;;1.70;;
69757;SDS011;57027;51.044;5.774;2022-07-06T16:44:48;6.07;;;1.70;;
69757;SDS011;57027;51.044;5.774;2022-07-06T16:47:13;3.83;;;1.63;;
69757;SDS011;57027;51.044;5.774;2022-07-06T16:49:39;5.27;;;1.73;;
69757;SDS011;57027;51.044;5.774;2022-07-06T16:52:07;3.83;;;1.50;;
69757;SDS011;57027;51.044;5.774;2022-07-06T16:54:33;3.70;;;2.10;;
69757;SDS011;57027;51.044;5.774;2022-07-06T16:57:01;4.53;;;1.50;;